Airfield :
LOGIN :

Register | Disclaimer

   EN    FR    IT 

 










Legend :    VFR   Marginal VFR   IFR   Intensive IFR   Very Intensive IFR
Visi :
Ceiling :
>= 8 km
>= 3000ft
5 to 8 km
1000 to 3000 ft
1500m to 5 km
500 to 1000 ft
800 to 1500m
200 to 500 ft
< 800m
< 200 ft
Symbols :   Thunderstorms  Fog  Heavy snow  Heavy precipitations  Wind > 20 kt
SIGMETs :     Misc.  Thunderstorms  Icing  Turbulence  Mountain Waves  Volcanic Ashes







- Airport Elevation : 1197 ft
- IATA code : SPM


ETAD - Spangdahlem Ab

CURRENT METAR :
  • 240656Z AUTO 24006KT 9999 CLR 07/05 A3048 RMK AO2 SLP320 T00660052 $

EXPIRED METARs :
  • 240556Z AUTO 26004KT 9999 CLR 05/05 A3045 RMK AO2 SLP311 T00530046 10067 20046 52025 $
  • 240456Z AUTO 24005KT 9999 CLR 05/04 A3043 RMK AO2 SLP303 T00490042 $

TAF TAF ETAD
Valid from the 24 at 03:00 until the 25 at 09:00 UTC


240303Z 2403/2509 VRB06KT 9999 FEW040 QNH3038INS
BECMG 2409/2410 31010G15KT 9999 BKN030 QNH3053INS
BECMG 2416/2417 VRB06KT 9999 SCT030 QNH3055INS
BECMG 2423/2424 VRB06KT 6000 BR FEW010 QNH3058INS TX14/2414Z TN05/2405Z
No reported NOTAMs for that airfield.



MET'MAP, your aeronautical weather chart ! - Copyright ORBIFLY December 2007 - Disclaimer

ORBIFLY MET'MAP TEAM :

Programming & Development : Alexandra Zaïnal
Concept & Development : Baudouin d'Aumeries
Co-Development & Prog : Marc-Olivier Méhu
Technical & hardware support : Manuel Goepfert

Contact : metmap@orbifly.com




SOURCES & CREDITS :

   NOAA